Cascade, MT

4:40 PM MST on December 19, 2014 (GMT -0700)
Trout Montana Fly Shop, Cascade, MT | Change Station
CLOSE
Current Station
Personal Weather Station
Location: Cascade, MT
Elevation: 3376 ft
Nearby Weather Stations

Elev 3376 ft 47.27 °N, 111.70 °W | Updated 1 minute ago

Overcast
Overcast
45.5 °F
Feels Like 42 °F
N
7.0
Wind Variable Wind from South
Gusts 13.0 mph

Today
High -- | Low -- °F
--% Chance of Precip.
Yesterday
High -- | Low -- °F
Precip. -- in
8:09 AM 4:38 PM
Waning Crescent, 5% visible
Pressure 29.78 in
Visibility 10.0 miles
Clouds Few 6000 ft
Scattered Clouds 9000 ft
Windchill 42 °F
Dew Point 29 °F
Humidity 53%
Rainfall 0.00 in
Snow Depth Not available.
UV 0 out of 12
Pollen .10 out of 12
Air Quality Not available.
Flu Activity Not available.
METAR KGTF 192253Z 22020G23KT 10SM FEW060 SCT090 06/M02 A2978

More Conditions Fewer Conditions

Pressure 29.78 in
Visibility 10.0 miles
Clouds Few 6000 ft
Scattered Clouds 9000 ft
Windchill 42 °F
Dew Point 29 °F
Humidity 53%
Rainfall 0.00 in
Snow Depth Not available.
UV 0 out of 12
Pollen .10 out of 12
Air Quality Not available.
Flu Activity Not available.
METAR KGTF 192253Z 22020G23KT 10SM FEW060 SCT090 06/M02 A2978

More Conditions Fewer Conditions

10-Day Weather Forecast

Almanac

Astronomy

Dec. 19, 2014 Rise Set
Actual Time
Civil Twilight
Nautical Twilight
Astronomical Twilight
Moon
Length of Visible Light
Length of Day
Tomorrow will be .
, % of the Moon is Illuminated

Today's Extremes

State Highs State Lows

Community

WunderPhotos

Upload Photos

1,779,078 photos uploaded!

WunderBlogs® & News

Nearby

Air Quality

  Air Quality AQ Index Pollutant
Not available.

Snow Depth

Station Depth Elevation

Earthquake Activity

City Distance Mag. Time & Date
Minimum magnitude displayed is 2.5.

Coastal Water Temperatures

Place Temperature

Nearby Weather Stations